sensor_id;sensor_type;location;lat;lon;timestamp;P1;durP1;ratioP1;P2;durP2;ratioP2
35418;SDS011;21525;41.240;16.500;2024-02-28T00:01:03;36.63;;;5.25;;
35418;SDS011;21525;41.240;16.500;2024-02-28T00:03:29;33.22;;;5.63;;
35418;SDS011;21525;41.240;16.500;2024-02-28T00:05:57;37.07;;;5.17;;
35418;SDS011;21525;41.240;16.500;2024-02-28T00:08:23;32.15;;;5.70;;
35418;SDS011;21525;41.240;16.500;2024-02-28T00:10:49;28.10;;;5.68;;
35418;SDS011;21525;41.240;16.500;2024-02-28T00:13:15;29.83;;;6.22;;
35418;SDS011;21525;41.240;16.500;2024-02-28T00:15:41;29.90;;;6.40;;
35418;SDS011;21525;41.240;16.500;2024-02-28T00:18:07;27.90;;;5.32;;
35418;SDS011;21525;41.240;16.500;2024-02-28T00:20:33;23.23;;;4.90;;
35418;SDS011;21525;41.240;16.500;2024-02-28T00:22:58;27.17;;;4.78;;
35418;SDS011;21525;41.240;16.500;2024-02-28T00:25:24;24.65;;;5.18;;
35418;SDS011;21525;41.240;16.500;2024-02-28T00:27:50;25.90;;;5.60;;
35418;SDS011;21525;41.240;16.500;2024-02-28T00:30:17;28.73;;;6.90;;
35418;SDS011;21525;41.240;16.500;2024-02-28T00:32:43;30.83;;;5.28;;
35418;SDS011;21525;41.240;16.500;2024-02-28T00:35:08;29.00;;;5.20;;
35418;SDS011;21525;41.240;16.500;2024-02-28T00:37:34;21.88;;;4.88;;
35418;SDS011;21525;41.240;16.500;2024-02-28T00:40:00;25.75;;;4.68;;
35418;SDS011;21525;41.240;16.500;2024-02-28T00:42:26;29.27;;;6.20;;
35418;SDS011;21525;41.240;16.500;2024-02-28T00:44:52;44.38;;;7.32;;
35418;SDS011;21525;41.240;16.500;2024-02-28T00:47:18;32.10;;;5.43;;
35418;SDS011;21525;41.240;16.500;2024-02-28T00:49:44;32.70;;;5.13;;
35418;SDS011;21525;41.240;16.500;2024-02-28T00:52:10;33.45;;;4.93;;
35418;SDS011;21525;41.240;16.500;2024-02-28T00:54:36;23.90;;;4.68;;
35418;SDS011;21525;41.240;16.500;2024-02-28T00:57:02;25.77;;;4.82;;
35418;SDS011;21525;41.240;16.500;2024-02-28T00:59:28;24.80;;;5.13;;
35418;SDS011;21525;41.240;16.500;2024-02-28T01:01:54;28.40;;;5.20;;
35418;SDS011;21525;41.240;16.500;2024-02-28T01:04:21;28.63;;;4.65;;
35418;SDS011;21525;41.240;16.500;2024-02-28T01:06:46;24.15;;;4.78;;
35418;SDS011;21525;41.240;16.500;2024-02-28T01:09:12;31.05;;;5.50;;
35418;SDS011;21525;41.240;16.500;2024-02-28T01:11:38;22.67;;;5.57;;
35418;SDS011;21525;41.240;16.500;2024-02-28T01:14:04;27.33;;;4.28;;
35418;SDS011;21525;41.240;16.500;2024-02-28T01:16:30;24.90;;;6.15;;
35418;SDS011;21525;41.240;16.500;2024-02-28T01:18:56;30.65;;;4.50;;
35418;SDS011;21525;41.240;16.500;2024-02-28T01:21:22;18.83;;;3.85;;
35418;SDS011;21525;41.240;16.500;2024-02-28T01:23:47;24.20;;;4.75;;
35418;SDS011;21525;41.240;16.500;2024-02-28T01:26:13;28.17;;;4.40;;
35418;SDS011;21525;41.240;16.500;2024-02-28T01:28:40;28.63;;;4.75;;
35418;SDS011;21525;41.240;16.500;2024-02-28T01:33:33;17.77;;;3.60;;
35418;SDS011;21525;41.240;16.500;2024-02-28T01:35:59;37.30;;;5.65;;
35418;SDS011;21525;41.240;16.500;2024-02-28T01:38:25;22.42;;;4.47;;
35418;SDS011;21525;41.240;16.500;2024-02-28T01:40:52;23.30;;;3.83;;
35418;SDS011;21525;41.240;16.500;2024-02-28T01:43:17;25.30;;;6.18;;
35418;SDS011;21525;41.240;16.500;2024-02-28T01:45:43;30.10;;;5.00;;
35418;SDS011;21525;41.240;16.500;2024-02-28T01:48:09;32.25;;;5.07;;
35418;SDS011;21525;41.240;16.500;2024-02-28T01:50:37;25.50;;;5.10;;
35418;SDS011;21525;41.240;16.500;2024-02-28T01:53:05;24.48;;;4.25;;
35418;SDS011;21525;41.240;16.500;2024-02-28T01:55:35;31.45;;;6.40;;
35418;SDS011;21525;41.240;16.500;2024-02-28T01:58:01;31.13;;;4.85;;
35418;SDS011;21525;41.240;16.500;2024-02-28T02:00:32;32.30;;;5.80;;
35418;SDS011;21525;41.240;16.500;2024-02-28T02:03:00;20.77;;;4.38;;
35418;SDS011;21525;41.240;16.500;2024-02-28T02:05:26;25.27;;;4.78;;
35418;SDS011;21525;41.240;16.500;2024-02-28T02:07:52;23.38;;;4.45;;
35418;SDS011;21525;41.240;16.500;2024-02-28T02:10:19;27.25;;;5.20;;
35418;SDS011;21525;41.240;16.500;2024-02-28T02:12:44;24.50;;;4.40;;
35418;SDS011;21525;41.240;16.500;2024-02-28T02:15:10;21.42;;;4.13;;
35418;SDS011;21525;41.240;16.500;2024-02-28T02:17:36;31.30;;;5.18;;
35418;SDS011;21525;41.240;16.500;2024-02-28T02:20:02;24.15;;;4.88;;
35418;SDS011;21525;41.240;16.500;2024-02-28T02:22:32;23.42;;;5.70;;
35418;SDS011;21525;41.240;16.500;2024-02-28T02:25:04;30.15;;;4.50;;
35418;SDS011;21525;41.240;16.500;2024-02-28T02:27:30;24.08;;;5.45;;
35418;SDS011;21525;41.240;16.500;2024-02-28T02:29:57;27.98;;;4.85;;
35418;SDS011;21525;41.240;16.500;2024-02-28T02:32:22;23.92;;;4.25;;
35418;SDS011;21525;41.240;16.500;2024-02-28T02:34:48;31.17;;;5.35;;
35418;SDS011;21525;41.240;16.500;2024-02-28T02:37:14;20.95;;;4.50;;
35418;SDS011;21525;41.240;16.500;2024-02-28T02:39:40;24.90;;;4.15;;
35418;SDS011;21525;41.240;16.500;2024-02-28T02:42:05;27.27;;;4.38;;
35418;SDS011;21525;41.240;16.500;2024-02-28T02:44:31;31.50;;;4.63;;
35418;SDS011;21525;41.240;16.500;2024-02-28T02:46:58;18.90;;;3.63;;
35418;SDS011;21525;41.240;16.500;2024-02-28T02:49:24;22.13;;;4.10;;
35418;SDS011;21525;41.240;16.500;2024-02-28T02:51:49;24.38;;;4.32;;
35418;SDS011;21525;41.240;16.500;2024-02-28T02:54:15;29.05;;;4.53;;
35418;SDS011;21525;41.240;16.500;2024-02-28T02:56:41;30.15;;;5.22;;
35418;SDS011;21525;41.240;16.500;2024-02-28T02:59:09;19.17;;;3.42;;
35418;SDS011;21525;41.240;16.500;2024-02-28T03:01:36;28.88;;;4.55;;
35418;SDS011;21525;41.240;16.500;2024-02-28T03:04:02;24.95;;;3.78;;
35418;SDS011;21525;41.240;16.500;2024-02-28T03:06:28;25.15;;;4.70;;
35418;SDS011;21525;41.240;16.500;2024-02-28T03:08:53;18.25;;;3.53;;
35418;SDS011;21525;41.240;16.500;2024-02-28T03:11:19;21.23;;;4.03;;
35418;SDS011;21525;41.240;16.500;2024-02-28T03:13:45;24.48;;;4.75;;
35418;SDS011;21525;41.240;16.500;2024-02-28T03:16:11;23.52;;;6.15;;
35418;SDS011;21525;41.240;16.500;2024-02-28T03:18:36;27.65;;;4.95;;
35418;SDS011;21525;41.240;16.500;2024-02-28T03:21:03;27.77;;;5.15;;
35418;SDS011;21525;41.240;16.500;2024-02-28T03:23:29;29.88;;;4.80;;
35418;SDS011;21525;41.240;16.500;2024-02-28T03:25:55;33.05;;;5.15;;
35418;SDS011;21525;41.240;16.500;2024-02-28T03:28:20;27.48;;;4.72;;
35418;SDS011;21525;41.240;16.500;2024-02-28T03:30:46;25.92;;;4.68;;
35418;SDS011;21525;41.240;16.500;2024-02-28T03:33:12;23.05;;;4.97;;
35418;SDS011;21525;41.240;16.500;2024-02-28T03:35:38;28.88;;;4.28;;
35418;SDS011;21525;41.240;16.500;2024-02-28T03:38:04;28.60;;;4.95;;
35418;SDS011;21525;41.240;16.500;2024-02-28T03:40:29;24.50;;;4.75;;
35418;SDS011;21525;41.240;16.500;2024-02-28T03:42:55;27.02;;;5.50;;
35418;SDS011;21525;41.240;16.500;2024-02-28T03:45:21;21.63;;;3.75;;
35418;SDS011;21525;41.240;16.500;2024-02-28T03:47:48;24.92;;;4.70;;
35418;SDS011;21525;41.240;16.500;2024-02-28T03:50:14;32.60;;;5.88;;
35418;SDS011;21525;41.240;16.500;2024-02-28T03:52:39;21.70;;;4.28;;
35418;SDS011;21525;41.240;16.500;2024-02-28T03:55:05;29.33;;;4.47;;
35418;SDS011;21525;41.240;16.500;2024-02-28T03:57:32;24.83;;;5.55;;
35418;SDS011;21525;41.240;16.500;2024-02-28T04:00:00;25.45;;;4.55;;
35418;SDS011;21525;41.240;16.500;2024-02-28T04:02:37;28.77;;;4.90;;
35418;SDS011;21525;41.240;16.500;2024-02-28T04:05:03;26.88;;;5.40;;
35418;SDS011;21525;41.240;16.500;2024-02-28T04:07:29;32.20;;;7.68;;
35418;SDS011;21525;41.240;16.500;2024-02-28T04:09:55;22.17;;;3.95;;
35418;SDS011;21525;41.240;16.500;2024-02-28T04:12:21;36.60;;;4.80;;
35418;SDS011;21525;41.240;16.500;2024-02-28T04:14:46;24.17;;;4.20;;
35418;SDS011;21525;41.240;16.500;2024-02-28T04:17:12;22.50;;;3.92;;
35418;SDS011;21525;41.240;16.500;2024-02-28T04:19:38;23.80;;;4.63;;
35418;SDS011;21525;41.240;16.500;2024-02-28T04:22:05;22.55;;;4.95;;
35418;SDS011;21525;41.240;16.500;2024-02-28T04:24:30;23.13;;;4.93;;
35418;SDS011;21525;41.240;16.500;2024-02-28T04:26:57;31.10;;;5.68;;
35418;SDS011;21525;41.240;16.500;2024-02-28T04:29:25;29.35;;;4.88;;
35418;SDS011;21525;41.240;16.500;2024-02-28T04:31:51;28.92;;;5.40;;
35418;SDS011;21525;41.240;16.500;2024-02-28T04:34:16;24.02;;;4.30;;
35418;SDS011;21525;41.240;16.500;2024-02-28T04:36:42;22.73;;;4.65;;
35418;SDS011;21525;41.240;16.500;2024-02-28T04:39:08;18.85;;;4.25;;
35418;SDS011;21525;41.240;16.500;2024-02-28T04:41:34;24.77;;;4.50;;
35418;SDS011;21525;41.240;16.500;2024-02-28T04:44:00;23.50;;;5.13;;
35418;SDS011;21525;41.240;16.500;2024-02-28T04:46:26;22.30;;;4.22;;
35418;SDS011;21525;41.240;16.500;2024-02-28T04:48:51;36.05;;;4.70;;
35418;SDS011;21525;41.240;16.500;2024-02-28T04:51:17;24.00;;;4.07;;
35418;SDS011;21525;41.240;16.500;2024-02-28T04:53:43;24.55;;;3.85;;
35418;SDS011;21525;41.240;16.500;2024-02-28T04:56:09;27.80;;;4.65;;
35418;SDS011;21525;41.240;16.500;2024-02-28T04:58:36;27.45;;;3.88;;
35418;SDS011;21525;41.240;16.500;2024-02-28T05:03:29;22.45;;;4.90;;
35418;SDS011;21525;41.240;16.500;2024-02-28T05:05:55;26.13;;;4.35;;
35418;SDS011;21525;41.240;16.500;2024-02-28T05:08:20;25.90;;;5.25;;
35418;SDS011;21525;41.240;16.500;2024-02-28T05:10:46;25.40;;;5.82;;
35418;SDS011;21525;41.240;16.500;2024-02-28T05:13:12;22.83;;;5.03;;
35418;SDS011;21525;41.240;16.500;2024-02-28T05:15:38;23.15;;;5.05;;
35418;SDS011;21525;41.240;16.500;2024-02-28T05:18:04;22.75;;;4.28;;
35418;SDS011;21525;41.240;16.500;2024-02-28T05:20:30;27.27;;;4.07;;
35418;SDS011;21525;41.240;16.500;2024-02-28T05:22:56;16.52;;;3.92;;
35418;SDS011;21525;41.240;16.500;2024-02-28T05:25:22;22.10;;;4.60;;
35418;SDS011;21525;41.240;16.500;2024-02-28T05:27:48;29.10;;;4.95;;
35418;SDS011;21525;41.240;16.500;2024-02-28T05:30:14;25.27;;;5.88;;
35418;SDS011;21525;41.240;16.500;2024-02-28T05:32:40;20.83;;;4.25;;
35418;SDS011;21525;41.240;16.500;2024-02-28T05:35:06;27.15;;;5.38;;
35418;SDS011;21525;41.240;16.500;2024-02-28T05:37:31;26.10;;;5.00;;
35418;SDS011;21525;41.240;16.500;2024-02-28T05:39:57;19.60;;;4.22;;
35418;SDS011;21525;41.240;16.500;2024-02-28T05:42:24;20.27;;;4.07;;
35418;SDS011;21525;41.240;16.500;2024-02-28T05:44:50;18.67;;;4.10;;
35418;SDS011;21525;41.240;16.500;2024-02-28T05:47:16;30.70;;;5.30;;
35418;SDS011;21525;41.240;16.500;2024-02-28T05:49:42;24.25;;;5.05;;
35418;SDS011;21525;41.240;16.500;2024-02-28T05:52:08;26.77;;;7.38;;
35418;SDS011;21525;41.240;16.500;2024-02-28T05:54:35;24.15;;;7.75;;
35418;SDS011;21525;41.240;16.500;2024-02-28T05:57:00;22.80;;;6.45;;
35418;SDS011;21525;41.240;16.500;2024-02-28T05:59:26;22.38;;;5.65;;
35418;SDS011;21525;41.240;16.500;2024-02-28T06:01:52;17.83;;;5.10;;
35418;SDS011;21525;41.240;16.500;2024-02-28T06:04:18;27.67;;;6.43;;
35418;SDS011;21525;41.240;16.500;2024-02-28T06:06:44;22.83;;;6.22;;
35418;SDS011;21525;41.240;16.500;2024-02-28T06:09:10;24.77;;;3.97;;
35418;SDS011;21525;41.240;16.500;2024-02-28T06:11:36;18.77;;;4.30;;
35418;SDS011;21525;41.240;16.500;2024-02-28T06:14:02;31.60;;;4.63;;
35418;SDS011;21525;41.240;16.500;2024-02-28T06:16:30;18.33;;;4.15;;
35418;SDS011;21525;41.240;16.500;2024-02-28T06:18:56;19.45;;;4.40;;
35418;SDS011;21525;41.240;16.500;2024-02-28T06:21:22;18.85;;;4.15;;
35418;SDS011;21525;41.240;16.500;2024-02-28T06:23:49;19.60;;;4.05;;
35418;SDS011;21525;41.240;16.500;2024-02-28T06:26:15;24.33;;;5.22;;
35418;SDS011;21525;41.240;16.500;2024-02-28T06:28:44;24.65;;;5.25;;
35418;SDS011;21525;41.240;16.500;2024-02-28T06:31:16;21.65;;;5.03;;
35418;SDS011;21525;41.240;16.500;2024-02-28T06:33:42;20.83;;;4.70;;
35418;SDS011;21525;41.240;16.500;2024-02-28T06:36:08;26.05;;;4.30;;
35418;SDS011;21525;41.240;16.500;2024-02-28T06:38:34;24.70;;;4.53;;
35418;SDS011;21525;41.240;16.500;2024-02-28T06:41:02;26.05;;;6.35;;
35418;SDS011;21525;41.240;16.500;2024-02-28T06:43:33;20.63;;;5.10;;
35418;SDS011;21525;41.240;16.500;2024-02-28T06:46:03;15.73;;;4.13;;
35418;SDS011;21525;41.240;16.500;2024-02-28T06:48:29;23.80;;;4.28;;
35418;SDS011;21525;41.240;16.500;2024-02-28T06:50:55;27.80;;;3.88;;
35418;SDS011;21525;41.240;16.500;2024-02-28T06:53:21;20.23;;;4.25;;
35418;SDS011;21525;41.240;16.500;2024-02-28T06:55:47;20.55;;;5.60;;
35418;SDS011;21525;41.240;16.500;2024-02-28T06:58:16;20.45;;;4.40;;
35418;SDS011;21525;41.240;16.500;2024-02-28T07:00:43;15.73;;;4.15;;
35418;SDS011;21525;41.240;16.500;2024-02-28T07:03:09;19.48;;;4.50;;
35418;SDS011;21525;41.240;16.500;2024-02-28T07:05:35;23.42;;;5.43;;
35418;SDS011;21525;41.240;16.500;2024-02-28T07:08:01;25.30;;;5.60;;
35418;SDS011;21525;41.240;16.500;2024-02-28T07:10:27;21.42;;;5.85;;
35418;SDS011;21525;41.240;16.500;2024-02-28T07:12:53;15.95;;;4.45;;
35418;SDS011;21525;41.240;16.500;2024-02-28T07:15:19;22.00;;;5.47;;
35418;SDS011;21525;41.240;16.500;2024-02-28T07:17:47;17.02;;;4.57;;
35418;SDS011;21525;41.240;16.500;2024-02-28T07:20:13;19.98;;;5.10;;
35418;SDS011;21525;41.240;16.500;2024-02-28T07:22:39;17.42;;;4.63;;
35418;SDS011;21525;41.240;16.500;2024-02-28T07:25:05;18.90;;;5.20;;
35418;SDS011;21525;41.240;16.500;2024-02-28T07:27:33;34.80;;;5.75;;
35418;SDS011;21525;41.240;16.500;2024-02-28T07:29:59;21.90;;;7.35;;
35418;SDS011;21525;41.240;16.500;2024-02-28T07:32:24;17.60;;;6.13;;
35418;SDS011;21525;41.240;16.500;2024-02-28T07:34:50;22.77;;;7.40;;
35418;SDS011;21525;41.240;16.500;2024-02-28T07:37:19;18.17;;;6.50;;
35418;SDS011;21525;41.240;16.500;2024-02-28T07:39:44;15.85;;;5.72;;
35418;SDS011;21525;41.240;16.500;2024-02-28T07:42:10;14.70;;;4.70;;
35418;SDS011;21525;41.240;16.500;2024-02-28T07:44:36;11.70;;;4.30;;
35418;SDS011;21525;41.240;16.500;2024-02-28T07:47:02;12.50;;;4.30;;
35418;SDS011;21525;41.240;16.500;2024-02-28T07:49:29;9.52;;;3.88;;
35418;SDS011;21525;41.240;16.500;2024-02-28T07:51:55;12.15;;;4.18;;
35418;SDS011;21525;41.240;16.500;2024-02-28T07:54:22;17.40;;;5.10;;
35418;SDS011;21525;41.240;16.500;2024-02-28T07:56:48;12.23;;;4.85;;
35418;SDS011;21525;41.240;16.500;2024-02-28T07:59:14;15.00;;;3.80;;
35418;SDS011;21525;41.240;16.500;2024-02-28T08:01:40;10.32;;;2.85;;
35418;SDS011;21525;41.240;16.500;2024-02-28T08:04:06;11.05;;;2.85;;
35418;SDS011;21525;41.240;16.500;2024-02-28T08:06:32;10.70;;;2.65;;
35418;SDS011;21525;41.240;16.500;2024-02-28T08:08:58;15.68;;;3.28;;
35418;SDS011;21525;41.240;16.500;2024-02-28T08:11:25;13.07;;;3.28;;
35418;SDS011;21525;41.240;16.500;2024-02-28T08:13:51;13.40;;;2.88;;
35418;SDS011;21525;41.240;16.500;2024-02-28T08:16:17;11.15;;;3.38;;
35418;SDS011;21525;41.240;16.500;2024-02-28T08:18:43;10.02;;;2.28;;
35418;SDS011;21525;41.240;16.500;2024-02-28T08:21:09;10.23;;;2.50;;
35418;SDS011;21525;41.240;16.500;2024-02-28T08:23:35;10.95;;;2.88;;
35418;SDS011;21525;41.240;16.500;2024-02-28T08:26:01;10.77;;;3.42;;
35418;SDS011;21525;41.240;16.500;2024-02-28T08:28:28;16.80;;;3.28;;
35418;SDS011;21525;41.240;16.500;2024-02-28T08:30:54;20.05;;;3.67;;
35418;SDS011;21525;41.240;16.500;2024-02-28T08:33:20;10.40;;;3.85;;
35418;SDS011;21525;41.240;16.500;2024-02-28T08:35:46;7.40;;;2.15;;
35418;SDS011;21525;41.240;16.500;2024-02-28T08:38:12;13.13;;;3.33;;
35418;SDS011;21525;41.240;16.500;2024-02-28T08:40:38;11.35;;;2.75;;
35418;SDS011;21525;41.240;16.500;2024-02-28T08:43:03;13.57;;;3.45;;
35418;SDS011;21525;41.240;16.500;2024-02-28T08:45:29;15.05;;;3.35;;
35418;SDS011;21525;41.240;16.500;2024-02-28T08:47:55;12.68;;;2.92;;
35418;SDS011;21525;41.240;16.500;2024-02-28T08:50:23;13.32;;;3.30;;
35418;SDS011;21525;41.240;16.500;2024-02-28T08:52:48;13.32;;;3.60;;
35418;SDS011;21525;41.240;16.500;2024-02-28T08:55:14;11.73;;;3.78;;
35418;SDS011;21525;41.240;16.500;2024-02-28T08:57:44;10.63;;;3.85;;
35418;SDS011;21525;41.240;16.500;2024-02-28T09:00:10;12.27;;;3.58;;
35418;SDS011;21525;41.240;16.500;2024-02-28T09:02:37;12.25;;;3.40;;
35418;SDS011;21525;41.240;16.500;2024-02-28T09:05:03;16.67;;;3.15;;
35418;SDS011;21525;41.240;16.500;2024-02-28T09:07:29;18.17;;;3.65;;
35418;SDS011;21525;41.240;16.500;2024-02-28T09:09:55;11.93;;;3.38;;
35418;SDS011;21525;41.240;16.500;2024-02-28T09:12:21;12.07;;;3.58;;
35418;SDS011;21525;41.240;16.500;2024-02-28T09:14:47;12.15;;;4.22;;
35418;SDS011;21525;41.240;16.500;2024-02-28T09:17:20;11.75;;;3.22;;
35418;SDS011;21525;41.240;16.500;2024-02-28T09:19:46;13.60;;;2.42;;
35418;SDS011;21525;41.240;16.500;2024-02-28T09:22:12;13.52;;;2.63;;
35418;SDS011;21525;41.240;16.500;2024-02-28T09:24:38;11.00;;;3.05;;
35418;SDS011;21525;41.240;16.500;2024-02-28T09:27:04;8.75;;;2.40;;
35418;SDS011;21525;41.240;16.500;2024-02-28T09:29:30;8.13;;;2.83;;
35418;SDS011;21525;41.240;16.500;2024-02-28T09:31:56;13.88;;;3.83;;
35418;SDS011;21525;41.240;16.500;2024-02-28T09:34:22;9.68;;;2.40;;
35418;SDS011;21525;41.240;16.500;2024-02-28T09:36:48;9.02;;;2.13;;
35418;SDS011;21525;41.240;16.500;2024-02-28T09:39:14;10.10;;;2.60;;
35418;SDS011;21525;41.240;16.500;2024-02-28T09:41:40;9.07;;;2.55;;
35418;SDS011;21525;41.240;16.500;2024-02-28T09:44:07;9.77;;;3.20;;
35418;SDS011;21525;41.240;16.500;2024-02-28T09:46:33;8.15;;;2.30;;
35418;SDS011;21525;41.240;16.500;2024-02-28T09:49:03;12.82;;;3.20;;
35418;SDS011;21525;41.240;16.500;2024-02-28T09:51:32;14.68;;;3.50;;
35418;SDS011;21525;41.240;16.500;2024-02-28T09:54:05;10.45;;;3.33;;
35418;SDS011;21525;41.240;16.500;2024-02-28T09:56:31;14.05;;;3.58;;
35418;SDS011;21525;41.240;16.500;2024-02-28T09:58:58;10.43;;;3.78;;
35418;SDS011;21525;41.240;16.500;2024-02-28T10:01:28;10.63;;;3.67;;
35418;SDS011;21525;41.240;16.500;2024-02-28T10:03:56;17.55;;;3.60;;
35418;SDS011;21525;41.240;16.500;2024-02-28T10:06:26;11.43;;;3.90;;
35418;SDS011;21525;41.240;16.500;2024-02-28T10:08:51;11.82;;;3.35;;
35418;SDS011;21525;41.240;16.500;2024-02-28T10:11:19;9.25;;;3.15;;
35418;SDS011;21525;41.240;16.500;2024-02-28T10:13:48;10.85;;;3.00;;
35418;SDS011;21525;41.240;16.500;2024-02-28T10:16:15;12.85;;;3.03;;
35418;SDS011;21525;41.240;16.500;2024-02-28T10:18:44;12.70;;;3.85;;
35418;SDS011;21525;41.240;16.500;2024-02-28T10:21:11;13.60;;;3.50;;
35418;SDS011;21525;41.240;16.500;2024-02-28T10:23:44;11.02;;;3.78;;
35418;SDS011;21525;41.240;16.500;2024-02-28T10:26:11;13.82;;;3.33;;
35418;SDS011;21525;41.240;16.500;2024-02-28T10:28:37;10.85;;;2.80;;
35418;SDS011;21525;41.240;16.500;2024-02-28T10:31:08;10.40;;;3.38;;
35418;SDS011;21525;41.240;16.500;2024-02-28T10:33:34;11.73;;;2.65;;
35418;SDS011;21525;41.240;16.500;2024-02-28T10:36:02;10.57;;;2.70;;
35418;SDS011;21525;41.240;16.500;2024-02-28T10:38:30;11.60;;;2.63;;
35418;SDS011;21525;41.240;16.500;2024-02-28T10:43:24;8.20;;;2.65;;
35418;SDS011;21525;41.240;16.500;2024-02-28T10:45:55;14.90;;;3.67;;
35418;SDS011;21525;41.240;16.500;2024-02-28T10:48:23;9.48;;;2.95;;
35418;SDS011;21525;41.240;16.500;2024-02-28T10:50:50;12.77;;;3.17;;
35418;SDS011;21525;41.240;16.500;2024-02-28T10:53:16;8.50;;;2.80;;
35418;SDS011;21525;41.240;16.500;2024-02-28T10:55:47;9.85;;;3.22;;
35418;SDS011;21525;41.240;16.500;2024-02-28T10:58:14;10.95;;;3.40;;
35418;SDS011;21525;41.240;16.500;2024-02-28T11:00:41;14.65;;;2.97;;
35418;SDS011;21525;41.240;16.500;2024-02-28T11:03:11;8.63;;;3.28;;
35418;SDS011;21525;41.240;16.500;2024-02-28T11:05:40;11.27;;;3.50;;
35418;SDS011;21525;41.240;16.500;2024-02-28T11:08:09;8.45;;;2.75;;
35418;SDS011;21525;41.240;16.500;2024-02-28T11:10:40;12.82;;;3.75;;
35418;SDS011;21525;41.240;16.500;2024-02-28T11:13:10;18.27;;;2.90;;
35418;SDS011;21525;41.240;16.500;2024-02-28T11:15:46;14.45;;;4.68;;
35418;SDS011;21525;41.240;16.500;2024-02-28T11:18:12;13.27;;;4.05;;
35418;SDS011;21525;41.240;16.500;2024-02-28T11:20:38;12.82;;;3.70;;
35418;SDS011;21525;41.240;16.500;2024-02-28T11:23:07;22.38;;;4.45;;
35418;SDS011;21525;41.240;16.500;2024-02-28T11:25:34;11.68;;;3.30;;
35418;SDS011;21525;41.240;16.500;2024-02-28T11:28:00;11.02;;;3.22;;
35418;SDS011;21525;41.240;16.500;2024-02-28T11:30:26;9.85;;;2.90;;
35418;SDS011;21525;41.240;16.500;2024-02-28T11:32:52;14.32;;;3.60;;
35418;SDS011;21525;41.240;16.500;2024-02-28T11:35:19;11.60;;;3.58;;
35418;SDS011;21525;41.240;16.500;2024-02-28T11:37:45;13.70;;;4.10;;
35418;SDS011;21525;41.240;16.500;2024-02-28T11:40:14;11.82;;;3.88;;
35418;SDS011;21525;41.240;16.500;2024-02-28T11:42:40;10.18;;;2.83;;
35418;SDS011;21525;41.240;16.500;2024-02-28T11:45:09;10.55;;;3.70;;
35418;SDS011;21525;41.240;16.500;2024-02-28T11:47:36;11.48;;;3.70;;
35418;SDS011;21525;41.240;16.500;2024-02-28T11:50:02;11.90;;;3.85;;
35418;SDS011;21525;41.240;16.500;2024-02-28T11:52:32;7.85;;;2.25;;
35418;SDS011;21525;41.240;16.500;2024-02-28T11:54:58;7.70;;;2.33;;
35418;SDS011;21525;41.240;16.500;2024-02-28T11:57:25;8.93;;;2.72;;
35418;SDS011;21525;41.240;16.500;2024-02-28T11:59:51;8.73;;;2.10;;
35418;SDS011;21525;41.240;16.500;2024-02-28T12:02:17;10.65;;;2.67;;
35418;SDS011;21525;41.240;16.500;2024-02-28T12:04:45;8.65;;;2.22;;
35418;SDS011;21525;41.240;16.500;2024-02-28T12:07:11;7.65;;;2.55;;
35418;SDS011;21525;41.240;16.500;2024-02-28T12:09:37;9.70;;;2.80;;
35418;SDS011;21525;41.240;16.500;2024-02-28T12:12:06;16.25;;;4.13;;
35418;SDS011;21525;41.240;16.500;2024-02-28T12:14:36;16.83;;;4.45;;
35418;SDS011;21525;41.240;16.500;2024-02-28T12:17:03;15.07;;;3.67;;
35418;SDS011;21525;41.240;16.500;2024-02-28T12:19:29;15.75;;;4.13;;
35418;SDS011;21525;41.240;16.500;2024-02-28T12:21:56;19.85;;;5.22;;
35418;SDS011;21525;41.240;16.500;2024-02-28T12:24:24;16.75;;;5.68;;
35418;SDS011;21525;41.240;16.500;2024-02-28T12:26:49;16.00;;;4.93;;
35418;SDS011;21525;41.240;16.500;2024-02-28T12:29:15;22.90;;;4.32;;
35418;SDS011;21525;41.240;16.500;2024-02-28T12:31:41;18.30;;;4.78;;
35418;SDS011;21525;41.240;16.500;2024-02-28T12:34:07;9.15;;;3.03;;
35418;SDS011;21525;41.240;16.500;2024-02-28T12:36:32;10.07;;;2.95;;
35418;SDS011;21525;41.240;16.500;2024-02-28T12:38:59;9.75;;;2.78;;
35418;SDS011;21525;41.240;16.500;2024-02-28T12:41:26;11.65;;;2.70;;
35418;SDS011;21525;41.240;16.500;2024-02-28T12:43:52;8.07;;;2.22;;
35418;SDS011;21525;41.240;16.500;2024-02-28T12:46:18;6.57;;;2.60;;
35418;SDS011;21525;41.240;16.500;2024-02-28T12:48:44;8.15;;;2.75;;
35418;SDS011;21525;41.240;16.500;2024-02-28T12:51:21;9.90;;;3.08;;
35418;SDS011;21525;41.240;16.500;2024-02-28T12:54:02;9.85;;;2.90;;
35418;SDS011;21525;41.240;16.500;2024-02-28T12:56:30;10.57;;;3.53;;
35418;SDS011;21525;41.240;16.500;2024-02-28T12:58:56;12.43;;;4.95;;
35418;SDS011;21525;41.240;16.500;2024-02-28T13:01:22;11.38;;;3.90;;
35418;SDS011;21525;41.240;16.500;2024-02-28T13:03:48;10.85;;;3.50;;
35418;SDS011;21525;41.240;16.500;2024-02-28T13:06:14;9.65;;;3.03;;
35418;SDS011;21525;41.240;16.500;2024-02-28T13:08:41;7.93;;;2.67;;
35418;SDS011;21525;41.240;16.500;2024-02-28T13:11:07;9.07;;;2.53;;
35418;SDS011;21525;41.240;16.500;2024-02-28T13:13:33;9.43;;;2.58;;
35418;SDS011;21525;41.240;16.500;2024-02-28T13:16:00;11.88;;;3.00;;
35418;SDS011;21525;41.240;16.500;2024-02-28T13:18:26;9.95;;;3.50;;
35418;SDS011;21525;41.240;16.500;2024-02-28T13:20:52;18.63;;;5.25;;
35418;SDS011;21525;41.240;16.500;2024-02-28T13:23:18;23.88;;;5.30;;
35418;SDS011;21525;41.240;16.500;2024-02-28T13:25:46;20.60;;;5.70;;
35418;SDS011;21525;41.240;16.500;2024-02-28T13:28:12;23.08;;;6.80;;
35418;SDS011;21525;41.240;16.500;2024-02-28T13:30:38;21.02;;;6.55;;
35418;SDS011;21525;41.240;16.500;2024-02-28T13:33:04;19.08;;;5.95;;
35418;SDS011;21525;41.240;16.500;2024-02-28T13:35:30;28.45;;;6.20;;
35418;SDS011;21525;41.240;16.500;2024-02-28T13:37:57;25.40;;;7.18;;
35418;SDS011;21525;41.240;16.500;2024-02-28T13:40:28;23.58;;;6.65;;
35418;SDS011;21525;41.240;16.500;2024-02-28T13:42:54;23.85;;;7.78;;
35418;SDS011;21525;41.240;16.500;2024-02-28T13:45:19;27.50;;;6.65;;
35418;SDS011;21525;41.240;16.500;2024-02-28T13:47:45;28.65;;;7.90;;
35418;SDS011;21525;41.240;16.500;2024-02-28T13:50:11;23.52;;;7.03;;
35418;SDS011;21525;41.240;16.500;2024-02-28T13:52:37;30.55;;;7.95;;
35418;SDS011;21525;41.240;16.500;2024-02-28T13:55:03;23.73;;;8.45;;
35418;SDS011;21525;41.240;16.500;2024-02-28T13:57:29;33.20;;;9.50;;
35418;SDS011;21525;41.240;16.500;2024-02-28T13:59:55;27.17;;;8.02;;
35418;SDS011;21525;41.240;16.500;2024-02-28T14:02:21;23.63;;;8.38;;
35418;SDS011;21525;41.240;16.500;2024-02-28T14:04:47;22.98;;;7.25;;
35418;SDS011;21525;41.240;16.500;2024-02-28T14:07:17;24.05;;;7.30;;
35418;SDS011;21525;41.240;16.500;2024-02-28T14:09:43;28.40;;;7.80;;
35418;SDS011;21525;41.240;16.500;2024-02-28T14:12:10;30.42;;;7.72;;
35418;SDS011;21525;41.240;16.500;2024-02-28T14:14:36;23.55;;;7.90;;
35418;SDS011;21525;41.240;16.500;2024-02-28T14:17:04;23.57;;;7.40;;
35418;SDS011;21525;41.240;16.500;2024-02-28T14:19:30;25.40;;;7.32;;
35418;SDS011;21525;41.240;16.500;2024-02-28T14:21:56;9.32;;;3.22;;
35418;SDS011;21525;41.240;16.500;2024-02-28T14:24:22;14.95;;;4.60;;
35418;SDS011;21525;41.240;16.500;2024-02-28T14:26:48;9.05;;;3.10;;